Time;durP1;ratioP1;P1;durP2;ratioP2;P2;SDS_P1;SDS_P2;PMS_P1;PMS_P2;Temp;Humidity;BMP_temperature;BMP_pressure;BME280_temperature;BME280_humidity;BME280_pressure;Samples;Min_cycle;Max_cycle;Signal;HPM_P1;HPM_P2
2023/10/12 00:00:42;;;;;;;;;;;11.90;99.90;;;;;;5058882;28;20389;-58
2023/10/12 00:03:09;;;;;;;;;;;11.90;99.90;;;;;;5058615;28;19909;-58
2023/10/12 00:05:34;;;;;;;;;;;11.80;99.90;;;;;;5058717;28;19927;-58
2023/10/12 00:08:10;;;;;;;;;;;11.80;99.90;;;;;;5058677;28;19912;-58
2023/10/12 00:10:44;;;;;;;;;;;11.70;99.90;;;;;;5058356;28;19954;-58
2023/10/12 00:13:13;;;;;;;;;;;11.60;99.90;;;;;;5041117;28;19909;-58
2023/10/12 00:15:45;;;;;;;;;;;11.60;99.90;;;;;;5058574;28;19991;-58
2023/10/12 00:18:14;;;;;;;;;;;11.60;99.90;;;;;;5058361;28;19941;-58
2023/10/12 00:20:40;;;;;;;;;;;11.60;99.90;;;;;;5058504;28;19909;-58
2023/10/12 00:23:15;;;;;;;;;;;11.70;99.90;;;;;;5058503;28;19962;-58
2023/10/12 00:25:54;;;;;;;;;;;11.60;99.90;;;;;;5058128;28;19935;-58
2023/10/12 00:28:21;;;;;;;;;;;11.60;99.90;;;;;;5058754;28;19971;-58
2023/10/12 00:30:49;;;;;;;;;;;11.60;99.90;;;;;;5058314;28;19909;-58
2023/10/12 00:33:17;;;;;;;;;;;11.60;99.90;;;;;;5058030;28;19909;-58
2023/10/12 00:35:48;;;;;;;;;;;11.50;99.90;;;;;;5056884;28;20435;-58
2023/10/12 00:38:18;;;;;;;;;;;11.50;99.90;;;;;;5056958;28;19913;-58
2023/10/12 00:40:50;;;;;;;;;;;11.40;99.90;;;;;;5040040;28;19909;-58
2023/10/12 00:43:15;;;;;;;;;;;11.40;99.90;;;;;;5056638;28;19909;-58
2023/10/12 00:45:42;;;;;;;;;;;11.40;99.90;;;;;;5058009;28;19915;-58
2023/10/12 00:48:07;;;;;;;;;;;11.40;99.90;;;;;;5056505;28;19911;-58
2023/10/12 00:50:36;;;;;;;;;;;11.30;99.90;;;;;;5056459;28;19908;-58
2023/10/12 00:53:22;;;;;;;;;;;11.20;99.90;;;;;;5056677;28;19954;-58
2023/10/12 00:55:48;;;;;;;;;;;11.20;99.90;;;;;;5057685;28;19916;-58
2023/10/12 00:58:15;;;;;;;;;;;11.30;99.90;;;;;;5056608;28;19912;-58
2023/10/12 01:00:51;;;;;;;;;;;11.30;99.90;;;;;;5056429;28;19908;-58
2023/10/12 01:08:42;;;;;;;;;;;11.40;99.90;;;;;;5057228;28;20341;-58
2023/10/12 01:11:09;;;;;;;;;;;11.30;99.90;;;;;;5056030;28;19931;-58
2023/10/12 01:13:35;;;;;;;;;;;11.30;99.90;;;;;;5057481;28;19950;-58
2023/10/12 01:16:16;;;;;;;;;;;11.30;99.90;;;;;;5057017;28;19908;-58
2023/10/12 01:18:44;;;;;;;;;;;11.30;99.90;;;;;;5039664;28;19958;-58
2023/10/12 01:21:11;;;;;;;;;;;11.20;99.90;;;;;;5057078;28;19913;-58
2023/10/12 01:23:41;;;;;;;;;;;11.20;99.90;;;;;;5039298;28;19908;-58
2023/10/12 01:26:13;;;;;;;;;;;11.20;99.90;;;;;;5039221;28;20015;-58
2023/10/12 01:28:43;;;;;;;;;;;11.10;99.90;;;;;;5039441;28;19916;-58
2023/10/12 01:31:09;;;;;;;;;;;11.10;99.90;;;;;;5039101;28;19916;-58
2023/10/12 01:33:37;;;;;;;;;;;11.10;99.90;;;;;;5057054;28;20385;-58
2023/10/12 01:36:04;;;;;;;;;;;11.20;99.90;;;;;;5039137;28;19912;-58
2023/10/12 01:38:37;;;;;;;;;;;11.10;99.90;;;;;;5038904;28;20370;-58
2023/10/12 01:41:09;;;;;;;;;;;11.10;99.90;;;;;;5039127;28;19916;-58
2023/10/12 01:43:35;;;;;;;;;;;11.10;99.90;;;;;;5056789;28;19915;-58
2023/10/12 01:46:08;;;;;;;;;;;11.10;99.90;;;;;;5038825;28;19956;-58
2023/10/12 01:48:34;;;;;;;;;;;11.10;99.90;;;;;;5039002;28;19908;-58
2023/10/12 01:51:09;;;;;;;;;;;11.00;99.90;;;;;;5056650;28;20326;-58
2023/10/12 01:53:36;;;;;;;;;;;11.00;99.90;;;;;;5038709;28;20285;-58
2023/10/12 01:56:09;;;;;;;;;;;11.00;99.90;;;;;;5038842;28;20015;-58
2023/10/12 01:58:35;;;;;;;;;;;11.00;99.90;;;;;;5038898;28;19978;-58
2023/10/12 02:01:05;;;;;;;;;;;11.10;99.90;;;;;;5038223;28;19909;-58
2023/10/12 02:03:31;;;;;;;;;;;11.10;99.90;;;;;;5056382;28;19908;-58
2023/10/12 02:06:05;;;;;;;;;;;11.00;99.90;;;;;;5055876;28;19909;-58
2023/10/12 02:08:39;;;;;;;;;;;11.10;99.90;;;;;;5038205;28;19919;-58
2023/10/12 02:13:41;;;;;;;;;;;11.10;99.90;;;;;;5054834;28;19909;-58
2023/10/12 02:16:07;;;;;;;;;;;11.10;99.90;;;;;;5037978;28;19931;-58
2023/10/12 02:18:35;;;;;;;;;;;10.90;99.90;;;;;;5055117;28;20011;-58
2023/10/12 02:21:09;;;;;;;;;;;10.70;99.90;;;;;;5056234;28;19954;-58
2023/10/12 02:31:38;;;;;;;;;;;10.70;99.90;;;;;;5054511;28;20433;-58
2023/10/12 02:34:05;;;;;;;;;;;10.60;99.90;;;;;;5054760;28;19912;-58
2023/10/12 02:36:31;;;;;;;;;;;10.60;99.90;;;;;;5054731;28;20019;-58
2023/10/12 02:39:10;;;;;;;;;;;10.60;99.90;;;;;;5055833;28;20259;-58
2023/10/12 02:41:42;;;;;;;;;;;10.60;99.90;;;;;;5054708;28;19964;-58
2023/10/12 02:44:12;;;;;;;;;;;10.60;99.90;;;;;;5054355;28;19916;-58
2023/10/12 02:46:48;;;;;;;;;;;10.60;99.90;;;;;;5055756;28;19909;-58
2023/10/12 02:49:14;;;;;;;;;;;10.70;99.90;;;;;;5054533;28;19947;-58
2023/10/12 02:51:44;;;;;;;;;;;10.70;99.90;;;;;;5054482;28;19948;-58
2023/10/12 02:54:11;;;;;;;;;;;10.70;99.90;;;;;;5054341;28;19909;-58
2023/10/12 02:56:42;;;;;;;;;;;10.70;99.90;;;;;;5054464;28;19997;-58
2023/10/12 02:59:08;;;;;;;;;;;10.70;99.90;;;;;;5054595;28;19905;-58
2023/10/12 03:01:38;;;;;;;;;;;10.60;99.90;;;;;;5054159;28;19919;-58
2023/10/12 03:04:10;;;;;;;;;;;10.50;99.90;;;;;;5054181;28;19958;-58
2023/10/12 03:06:53;;;;;;;;;;;10.50;99.90;;;;;;5055517;28;19955;-58
2023/10/12 03:09:25;;;;;;;;;;;10.50;99.90;;;;;;5054385;28;19908;-58
2023/10/12 03:11:56;;;;;;;;;;;10.50;99.90;;;;;;5037718;28;19909;-58
2023/10/12 03:14:26;;;;;;;;;;;10.50;99.90;;;;;;5055484;28;19920;-57
2023/10/12 03:16:52;;;;;;;;;;;10.60;99.90;;;;;;5056428;28;19962;-58
2023/10/12 03:19:23;;;;;;;;;;;10.60;99.90;;;;;;5059750;28;19905;-58
2023/10/12 03:21:51;;;;;;;;;;;10.50;99.90;;;;;;5041483;28;19915;-58
2023/10/12 03:24:21;;;;;;;;;;;10.50;99.90;;;;;;5059575;28;19912;-58
2023/10/12 03:27:11;;;;;;;;;;;10.50;99.90;;;;;;5059486;28;19909;-58
2023/10/12 03:29:43;;;;;;;;;;;10.50;99.90;;;;;;5041420;28;20251;-58
2023/10/12 03:32:12;;;;;;;;;;;10.60;99.90;;;;;;5059410;28;20357;-58
2023/10/12 03:37:06;;;;;;;;;;;10.50;99.90;;;;;;5059176;28;20141;-58
2023/10/12 03:44:57;;;;;;;;;;;10.40;99.90;;;;;;5058960;28;19916;-58
2023/10/12 03:52:29;;;;;;;;;;;10.30;99.90;;;;;;5058843;28;19909;-58
2023/10/12 03:55:24;;;;;;;;;;;10.40;99.90;;;;;;5059143;28;20026;-58
2023/10/12 03:58:00;;;;;;;;;;;10.40;99.90;;;;;;5058258;28;19944;-58
2023/10/12 04:00:32;;;;;;;;;;;10.30;99.90;;;;;;5058699;28;20357;-58
2023/10/12 04:02:58;;;;;;;;;;;10.20;99.90;;;;;;5058800;28;20354;-58
2023/10/12 04:18:42;;;;;;;;;;;10.00;99.90;;;;;;5038637;28;20278;-58
2023/10/12 04:21:14;;;;;;;;;;;10.00;99.90;;;;;;5038405;28;19909;-58
2023/10/12 04:28:41;;;;;;;;;;;9.90;99.90;;;;;;5037597;28;20318;-58
2023/10/12 04:34:07;;;;;;;;;;;9.80;99.90;;;;;;5038248;28;20031;-57
2023/10/12 04:36:33;;;;;;;;;;;9.70;99.90;;;;;;5036903;28;19947;-57
2023/10/12 04:39:16;;;;;;;;;;;9.70;99.90;;;;;;5038306;28;19909;-57
2023/10/12 04:41:54;;;;;;;;;;;9.70;99.90;;;;;;5038189;28;19912;-57
2023/10/12 04:47:06;;;;;;;;;;;9.60;99.90;;;;;;5038102;28;19913;-57
2023/10/12 04:52:15;;;;;;;;;;;9.60;99.90;;;;;;5037525;28;19916;-57
2023/10/12 04:57:28;;;;;;;;;;;9.80;99.90;;;;;;5038043;28;19913;-57
2023/10/12 05:07:54;;;;;;;;;;;9.70;99.90;;;;;;5037566;28;20290;-58
2023/10/12 05:10:26;;;;;;;;;;;9.70;99.90;;;;;;5037536;28;19909;-57
2023/10/12 05:12:53;;;;;;;;;;;9.70;99.90;;;;;;5037258;28;19920;-57
2023/10/12 05:15:20;;;;;;;;;;;9.80;99.90;;;;;;5037488;28;19963;-57
2023/10/12 05:17:46;;;;;;;;;;;9.80;99.90;;;;;;5052806;28;19988;-58
2023/10/12 05:20:12;;;;;;;;;;;9.90;99.90;;;;;;5057078;28;19951;-57
2023/10/12 05:22:37;;;;;;;;;;;10.10;99.90;;;;;;5057267;28;19916;-57
2023/10/12 05:25:04;;;;;;;;;;;10.20;99.90;;;;;;5056726;28;19916;-57
2023/10/12 05:27:38;;;;;;;;;;;10.30;99.90;;;;;;5057443;28;20007;-57
2023/10/12 05:30:05;;;;;;;;;;;10.40;99.90;;;;;;5057236;28;19912;-57
2023/10/12 05:32:43;;;;;;;;;;;10.60;99.90;;;;;;5056448;28;19915;-57
2023/10/12 05:35:15;;;;;;;;;;;10.60;99.90;;;;;;5057213;28;19909;-58
2023/10/12 05:37:48;;;;;;;;;;;10.80;99.90;;;;;;5057644;28;19916;-58
2023/10/12 05:40:15;;;;;;;;;;;11.20;99.90;;;;;;5056681;28;19920;-58
2023/10/12 05:42:40;;;;;;;;;;;11.60;99.90;;;;;;5057083;28;19909;-58
2023/10/12 05:47:44;;;;;;;;;;;12.20;99.90;;;;;;5041544;28;20282;-67
2023/10/12 05:50:15;;;;;;;;;;;12.60;99.90;;;;;;5054988;28;19908;-58
2023/10/12 05:52:41;;;;;;;;;;;13.20;99.90;;;;;;5047021;28;19909;-59
2023/10/12 05:55:21;;;;;;;;;;;13.80;99.90;;;;;;5054494;28;19908;-59
2023/10/12 05:57:48;;;;;;;;;;;14.50;99.90;;;;;;5056255;28;19908;-59
2023/10/12 06:00:18;;;;;;;;;;;14.80;99.90;;;;;;5055409;28;20346;-59
2023/10/12 06:02:58;;;;;;;;;;;15.10;99.90;;;;;;5113537;27;20299;-57
2023/10/12 06:05:24;;;;;;;;;;;15.50;99.90;;;;;;5113431;28;19999;-57
2023/10/12 06:07:49;;;;;;;;;;;15.70;99.80;;;;;;5113617;28;19915;-57
2023/10/12 06:10:15;;;;;;;;;;;16.10;98.50;;;;;;5110961;27;20006;-57
2023/10/12 06:12:42;;;;;;;;;;;15.80;98.90;;;;;;5112959;28;20379;-57
2023/10/12 06:15:10;;;;;;;;;;;15.90;99.00;;;;;;5101576;28;19916;-57
2023/10/12 06:17:39;;;;;;;;;;;16.30;98.50;;;;;;5118598;28;19912;-57
2023/10/12 06:20:10;;;;;;;;;;;16.70;97.90;;;;;;5112568;28;19957;-59
2023/10/12 06:22:36;;;;;;;;;;;16.90;96.90;;;;;;5111800;28;19916;-59
2023/10/12 06:25:08;;;;;;;;;;;17.10;96.30;;;;;;5112533;28;19915;-59
2023/10/12 06:27:33;;;;;;;;;;;16.70;95.40;;;;;;5112294;27;19919;-59
2023/10/12 06:30:05;;;;;;;;;;;16.00;97.60;;;;;;5113174;28;19912;-59
2023/10/12 06:32:36;;;;;;;;;;;15.80;97.60;;;;;;5113308;28;19951;-59
2023/10/12 06:45:51;;;;;;;;;;;18.10;93.90;;;;;;5112625;27;19919;-59
2023/10/12 06:51:02;;;;;;;;;;;17.70;93.20;;;;;;5112105;28;19911;-59
2023/10/12 06:53:34;;;;;;;;;;;18.30;92.10;;;;;;5111101;28;19978;-59
2023/10/12 06:56:15;;;;;;;;;;;18.70;91.70;;;;;;5112733;27;19919;-59
2023/10/12 06:58:45;;;;;;;;;;;19.20;91.00;;;;;;5113078;28;20015;-59
2023/10/12 07:01:27;;;;;;;;;;;19.50;88.50;;;;;;5111042;28;20007;-60
2023/10/12 07:03:53;;;;;;;;;;;20.00;85.30;;;;;;5112709;28;19915;-60
2023/10/12 07:06:19;;;;;;;;;;;20.20;85.20;;;;;;5112796;27;19912;-60
2023/10/12 07:08:46;;;;;;;;;;;20.50;83.80;;;;;;5112404;28;19916;-59
2023/10/12 07:11:14;;;;;;;;;;;20.50;81.70;;;;;;5110664;28;19912;-60
2023/10/12 07:13:41;;;;;;;;;;;20.40;80.90;;;;;;5091859;28;19913;-60
2023/10/12 07:16:10;;;;;;;;;;;20.80;80.60;;;;;;5097945;28;19912;-60
2023/10/12 07:18:42;;;;;;;;;;;21.50;76.90;;;;;;5096685;28;19912;-60
2023/10/12 07:21:20;;;;;;;;;;;22.10;75.70;;;;;;5096057;28;19916;-60
2023/10/12 07:23:52;;;;;;;;;;;22.60;71.40;;;;;;5086506;28;19919;-58
2023/10/12 07:26:18;;;;;;;;;;;22.80;71.20;;;;;;5077332;28;19912;-58
2023/10/12 07:28:49;;;;;;;;;;;22.90;67.90;;;;;;5088570;28;19912;-58
2023/10/12 07:41:41;;;;;;;;;;;24.50;62.40;;;;;;5097837;28;19916;-58
2023/10/12 07:44:07;;;;;;;;;;;24.80;60.30;;;;;;5098067;28;19908;-58
2023/10/12 07:46:35;;;;;;;;;;;24.90;57.70;;;;;;5097952;28;19964;-58
2023/10/12 07:49:22;;;;;;;;;;;25.50;56.00;;;;;;5094120;27;20360;-59
2023/10/12 07:57:15;;;;;;;;;;;25.50;53.80;;;;;;5093658;28;19912;-59
2023/10/12 07:59:49;;;;;;;;;;;26.20;51.90;;;;;;5097960;28;19973;-59
2023/10/12 08:02:15;;;;;;;;;;;26.60;50.40;;;;;;5097624;28;19916;-59
2023/10/12 08:04:57;;;;;;;;;;;26.60;49.80;;;;;;5098154;28;19981;-58
2023/10/12 08:07:26;;;;;;;;;;;26.60;51.30;;;;;;5098089;28;19912;-58
2023/10/12 08:10:08;;;;;;;;;;;27.00;49.40;;;;;;5097542;28;19923;-59
2023/10/12 08:12:36;;;;;;;;;;;27.00;52.30;;;;;;5097587;28;19919;-59
2023/10/12 08:15:09;;;;;;;;;;;26.40;50.80;;;;;;5097431;28;20381;-59
2023/10/12 08:17:35;;;;;;;;;;;27.10;49.90;;;;;;5097231;28;19912;-59
2023/10/12 08:22:50;;;;;;;;;;;27.90;48.60;;;;;;5097181;28;19916;-59
2023/10/12 08:25:27;;;;;;;;;;;27.80;47.80;;;;;;5096070;28;19915;-59
2023/10/12 08:27:53;;;;;;;;;;;27.50;47.70;;;;;;5096150;28;19912;-59
2023/10/12 08:30:48;;;;;;;;;;;27.60;48.80;;;;;;5097360;28;19949;-60
2023/10/12 08:33:14;;;;;;;;;;;27.70;47.70;;;;;;5091465;28;19919;-59
2023/10/12 08:36:23;;;;;;;;;;;28.20;47.00;;;;;;5097582;28;20254;-60
2023/10/12 08:38:40;;;;;;;;;;;28.20;45.50;;;;;;5095974;28;19912;-59
2023/10/12 08:43:52;;;;;;;;;;;28.70;43.30;;;;;;5097664;28;19934;-59
2023/10/12 08:52:04;;;;;;;;;;;28.50;45.00;;;;;;5076941;28;19912;-60
2023/10/12 08:54:34;;;;;;;;;;;29.40;43.80;;;;;;5090483;28;19919;-59
2023/10/12 08:57:02;;;;;;;;;;;29.90;41.10;;;;;;5096973;28;19916;-60
2023/10/12 08:59:33;;;;;;;;;;;29.60;41.00;;;;;;5096924;28;19912;-60
2023/10/12 09:02:12;;;;;;;;;;;30.10;41.20;;;;;;5094078;28;19920;-59
2023/10/12 09:04:39;;;;;;;;;;;30.00;39.70;;;;;;5096524;28;19912;-60
2023/10/12 09:07:05;;;;;;;;;;;30.30;41.90;;;;;;5096356;28;20284;-60
2023/10/12 09:09:49;;;;;;;;;;;31.00;39.00;;;;;;5096186;28;19919;-60
2023/10/12 09:12:19;;;;;;;;;;;30.80;38.30;;;;;;5096180;28;19912;-60
2023/10/12 09:14:45;;;;;;;;;;;31.00;36.80;;;;;;5096044;28;19937;-60
2023/10/12 09:17:23;;;;;;;;;;;30.70;38.70;;;;;;5092900;28;19983;-59
2023/10/12 09:19:49;;;;;;;;;;;30.00;38.20;;;;;;5084500;28;20569;-59
2023/10/12 09:22:27;;;;;;;;;;;31.00;38.50;;;;;;5093188;28;19916;-59
2023/10/12 09:24:53;;;;;;;;;;;31.00;36.40;;;;;;5089077;28;19916;-60
2023/10/12 09:27:26;;;;;;;;;;;31.40;36.40;;;;;;5081618;27;20293;-60
2023/10/12 09:29:57;;;;;;;;;;;30.60;37.00;;;;;;5076725;28;20009;-60
2023/10/12 09:32:27;;;;;;;;;;;30.80;37.30;;;;;;5081692;28;19966;-60
2023/10/12 09:37:22;;;;;;;;;;;31.30;35.20;;;;;;5093000;28;20342;-60
2023/10/12 09:39:48;;;;;;;;;;;31.20;35.60;;;;;;5094025;28;19981;-60
2023/10/12 09:42:22;;;;;;;;;;;31.10;37.80;;;;;;5096107;28;19916;-60
2023/10/12 09:44:50;;;;;;;;;;;31.90;35.20;;;;;;5096287;28;20239;-60
2023/10/12 09:47:23;;;;;;;;;;;31.90;34.80;;;;;;5094653;28;20087;-60
2023/10/12 09:49:55;;;;;;;;;;;31.80;34.10;;;;;;5095362;28;19928;-60
2023/10/12 09:52:25;;;;;;;;;;;31.90;34.00;;;;;;5095858;28;19912;-60
2023/10/12 09:55:14;;;;;;;;;;;32.40;35.50;;;;;;5094505;28;20385;-60
2023/10/12 09:57:49;;;;;;;;;;;32.80;32.90;;;;;;5096386;28;19920;-60
2023/10/12 10:00:28;;;;;;;;;;;33.10;31.10;;;;;;5093025;28;19943;-60
2023/10/12 10:03:02;;;;;;;;;;;33.50;31.70;;;;;;5092154;28;19999;-60
2023/10/12 10:05:51;;;;;;;;;;;32.90;32.80;;;;;;5092141;28;19958;-60
2023/10/12 10:08:18;;;;;;;;;;;33.00;31.20;;;;;;5093345;28;19913;-60
2023/10/12 10:10:45;;;;;;;;;;;33.70;30.10;;;;;;5095590;28;19908;-61
2023/10/12 10:13:31;;;;;;;;;;;33.70;28.70;;;;;;5096325;28;19916;-60
2023/10/12 10:15:56;;;;;;;;;;;33.80;28.10;;;;;;5093904;28;19921;-60
2023/10/12 10:18:25;;;;;;;;;;;33.60;29.20;;;;;;5116613;28;19919;-60
2023/10/12 10:20:57;;;;;;;;;;;33.70;27.80;;;;;;5115954;28;19961;-60
2023/10/12 10:23:23;;;;;;;;;;;33.90;27.30;;;;;;5115487;28;19957;-60
2023/10/12 10:25:56;;;;;;;;;;;33.00;26.60;;;;;;5109256;28;19912;-60
2023/10/12 10:28:25;;;;;;;;;;;33.70;28.10;;;;;;5092146;28;19912;-60
2023/10/12 10:30:52;;;;;;;;;;;34.10;27.00;;;;;;5094114;28;19916;-60
2023/10/12 10:33:22;;;;;;;;;;;34.40;26.80;;;;;;5094524;28;19998;-60
2023/10/12 10:35:54;;;;;;;;;;;34.10;25.10;;;;;;5092527;28;20277;-60
2023/10/12 10:38:20;;;;;;;;;;;33.40;26.20;;;;;;5095443;28;19912;-60
2023/10/12 10:40:48;;;;;;;;;;;33.80;25.80;;;;;;5095497;28;20022;-60
2023/10/12 10:43:16;;;;;;;;;;;34.00;25.80;;;;;;5095278;28;19912;-60
2023/10/12 10:45:56;;;;;;;;;;;34.00;26.00;;;;;;5095216;28;19913;-60
2023/10/12 10:48:23;;;;;;;;;;;33.40;26.70;;;;;;5096609;28;19916;-60
2023/10/12 10:50:50;;;;;;;;;;;33.70;27.80;;;;;;5098782;28;19919;-60
2023/10/12 10:53:20;;;;;;;;;;;33.70;25.70;;;;;;5098532;28;20372;-60
2023/10/12 10:55:50;;;;;;;;;;;34.50;25.30;;;;;;5099104;28;19950;-60
2023/10/12 10:58:17;;;;;;;;;;;34.40;25.80;;;;;;5098784;28;20381;-60
2023/10/12 11:00:46;;;;;;;;;;;34.80;27.00;;;;;;5098363;28;19908;-61
2023/10/12 11:03:16;;;;;;;;;;;34.40;25.50;;;;;;5097328;28;19916;-60
2023/10/12 11:05:44;;;;;;;;;;;34.20;25.30;;;;;;5098864;27;19912;-60
2023/10/12 11:08:19;;;;;;;;;;;35.00;25.10;;;;;;5098864;28;19916;-60
2023/10/12 11:13:32;;;;;;;;;;;34.70;24.30;;;;;;5098083;28;20031;-60
2023/10/12 11:16:20;;;;;;;;;;;34.30;24.20;;;;;;5093799;27;19958;-60
2023/10/12 11:18:49;;;;;;;;;;;33.90;25.10;;;;;;5078280;28;19912;-60
2023/10/12 11:21:15;;;;;;;;;;;34.50;25.00;;;;;;5078174;28;20350;-60
2023/10/12 11:23:44;;;;;;;;;;;34.30;24.60;;;;;;5081536;28;19916;-60
2023/10/12 11:26:17;;;;;;;;;;;34.10;23.60;;;;;;5098486;28;19916;-60
2023/10/12 11:28:46;;;;;;;;;;;33.80;25.20;;;;;;5098286;28;19912;-60
2023/10/12 11:31:30;;;;;;;;;;;34.40;24.20;;;;;;5098066;28;20416;-60
2023/10/12 11:33:56;;;;;;;;;;;34.30;26.00;;;;;;5097950;28;19912;-60
2023/10/12 11:36:25;;;;;;;;;;;34.80;24.40;;;;;;5098140;28;19954;-60
2023/10/12 11:39:01;;;;;;;;;;;34.80;24.60;;;;;;5096294;28;19916;-60
2023/10/12 11:41:27;;;;;;;;;;;34.10;24.50;;;;;;5098372;28;20273;-60
2023/10/12 11:43:54;;;;;;;;;;;34.30;24.10;;;;;;5097877;27;19912;-60
2023/10/12 11:46:21;;;;;;;;;;;34.50;22.70;;;;;;5097727;28;19986;-60
2023/10/12 11:49:10;;;;;;;;;;;34.90;23.00;;;;;;5098000;28;19912;-60
2023/10/12 11:51:50;;;;;;;;;;;33.40;21.40;;;;;;5085326;28;19912;-60
2023/10/12 11:54:32;;;;;;;;;;;32.90;21.10;;;;;;5088385;28;20271;-60
2023/10/12 11:56:58;;;;;;;;;;;32.50;22.10;;;;;;5095222;28;19918;-60
2023/10/12 11:59:30;;;;;;;;;;;33.10;23.20;;;;;;5094972;28;20255;-61
2023/10/12 12:02:00;;;;;;;;;;;33.20;19.80;;;;;;5092372;28;19922;-60
2023/10/12 12:04:38;;;;;;;;;;;33.10;23.00;;;;;;5097321;28;20015;-60
2023/10/12 12:07:05;;;;;;;;;;;33.20;21.30;;;;;;5096399;28;19951;-60
2023/10/12 12:09:30;;;;;;;;;;;32.90;21.80;;;;;;5094753;28;20258;-60
2023/10/12 12:11:57;;;;;;;;;;;32.30;21.70;;;;;;5096251;28;19965;-60
2023/10/12 12:14:23;;;;;;;;;;;32.30;21.50;;;;;;5094316;28;19919;-60
2023/10/12 12:16:49;;;;;;;;;;;31.40;23.20;;;;;;5090554;28;20281;-60
2023/10/12 12:19:18;;;;;;;;;;;31.50;22.40;;;;;;5089183;28;19912;-60
2023/10/12 12:21:45;;;;;;;;;;;32.10;22.20;;;;;;5089007;28;19916;-60
2023/10/12 12:26:49;;;;;;;;;;;32.00;25.30;;;;;;5091024;28;19958;-60
2023/10/12 12:29:15;;;;;;;;;;;33.00;21.50;;;;;;5081860;28;19909;-60
2023/10/12 12:31:41;;;;;;;;;;;32.70;20.40;;;;;;5076863;28;19912;-60
2023/10/12 12:34:07;;;;;;;;;;;32.90;20.90;;;;;;5076830;28;19919;-60
2023/10/12 12:36:33;;;;;;;;;;;33.30;20.90;;;;;;5091215;28;20018;-60
2023/10/12 12:39:09;;;;;;;;;;;32.10;20.50;;;;;;5088867;27;19930;-60
2023/10/12 12:41:34;;;;;;;;;;;32.30;20.70;;;;;;5091112;28;20277;-60
2023/10/12 12:44:00;;;;;;;;;;;32.30;20.30;;;;;;5089135;28;19916;-60
2023/10/12 12:46:26;;;;;;;;;;;32.90;22.60;;;;;;5090130;28;19966;-60
2023/10/12 12:48:52;;;;;;;;;;;33.20;22.20;;;;;;5078580;28;19913;-60
2023/10/12 12:51:18;;;;;;;;;;;33.70;20.80;;;;;;5082761;28;19912;-60
2023/10/12 12:53:46;;;;;;;;;;;34.00;19.00;;;;;;5094947;28;19918;-60
2023/10/12 12:56:14;;;;;;;;;;;33.80;18.30;;;;;;5096327;28;19912;-60
2023/10/12 12:58:46;;;;;;;;;;;33.70;20.50;;;;;;5087126;28;19916;-60
2023/10/12 13:01:18;;;;;;;;;;;33.90;20.80;;;;;;5097078;28;19922;-60
2023/10/12 13:03:47;;;;;;;;;;;34.00;19.20;;;;;;5096476;27;19922;-60
2023/10/12 13:06:15;;;;;;;;;;;34.20;19.50;;;;;;5096062;28;19934;-60
2023/10/12 13:08:40;;;;;;;;;;;34.10;18.40;;;;;;5094725;28;19916;-60
2023/10/12 13:11:06;;;;;;;;;;;34.30;19.20;;;;;;5095936;28;19912;-60
2023/10/12 13:13:33;;;;;;;;;;;33.40;20.10;;;;;;5095717;28;19912;-60
2023/10/12 13:16:05;;;;;;;;;;;33.30;19.90;;;;;;5096115;28;19912;-60
2023/10/12 13:18:32;;;;;;;;;;;33.30;19.20;;;;;;5096222;28;20315;-60
2023/10/12 13:20:59;;;;;;;;;;;33.60;21.60;;;;;;5096046;28;19912;-60
2023/10/12 13:23:25;;;;;;;;;;;33.70;19.80;;;;;;5096282;28;19912;-60
2023/10/12 13:25:50;;;;;;;;;;;33.40;20.50;;;;;;5096339;28;19923;-60
2023/10/12 13:28:16;;;;;;;;;;;32.60;20.50;;;;;;5096303;28;20007;-60
2023/10/12 13:30:43;;;;;;;;;;;32.90;23.60;;;;;;5096035;28;19934;-60
2023/10/12 13:33:11;;;;;;;;;;;33.10;20.50;;;;;;5096129;28;19916;-60
2023/10/12 13:38:09;;;;;;;;;;;33.50;21.70;;;;;;5096048;28;19919;-60
2023/10/12 13:40:46;;;;;;;;;;;33.60;22.10;;;;;;5096114;28;19912;-60
2023/10/12 13:43:15;;;;;;;;;;;33.80;20.60;;;;;;5095769;28;19924;-60
2023/10/12 13:45:40;;;;;;;;;;;33.70;22.40;;;;;;5095968;28;19916;-61
2023/10/12 13:48:10;;;;;;;;;;;33.80;22.40;;;;;;5096085;28;20000;-61
2023/10/12 13:50:37;;;;;;;;;;;33.60;22.20;;;;;;5095675;28;19912;-61
2023/10/12 13:53:05;;;;;;;;;;;33.60;22.90;;;;;;5096046;28;19962;-61
2023/10/12 13:55:32;;;;;;;;;;;33.70;21.60;;;;;;5096032;28;19970;-61
2023/10/12 13:58:00;;;;;;;;;;;33.40;22.10;;;;;;5095567;28;20371;-61
2023/10/12 14:00:25;;;;;;;;;;;33.30;20.90;;;;;;5095992;28;19912;-61
2023/10/12 14:02:54;;;;;;;;;;;33.00;21.40;;;;;;5094467;28;19916;-61
2023/10/12 14:05:24;;;;;;;;;;;32.30;24.20;;;;;;5095808;28;19912;-61
2023/10/12 14:07:54;;;;;;;;;;;32.20;25.20;;;;;;5095818;28;19977;-60
2023/10/12 14:10:21;;;;;;;;;;;32.40;24.80;;;;;;5095787;28;19919;-60
2023/10/12 14:12:46;;;;;;;;;;;31.90;25.50;;;;;;5095371;28;19912;-60
2023/10/12 14:15:12;;;;;;;;;;;32.00;26.30;;;;;;5095644;28;19934;-61
2023/10/12 14:17:39;;;;;;;;;;;32.00;24.40;;;;;;5110558;28;19918;-60
2023/10/12 14:20:05;;;;;;;;;;;31.70;26.40;;;;;;5116042;28;20014;-60
2023/10/12 14:22:31;;;;;;;;;;;31.40;25.10;;;;;;5116009;28;19927;-60
2023/10/12 14:24:56;;;;;;;;;;;31.40;26.50;;;;;;5120166;28;19919;-60
2023/10/12 14:27:22;;;;;;;;;;;31.10;25.00;;;;;;5120227;28;19912;-60
2023/10/12 14:29:51;;;;;;;;;;;31.20;24.90;;;;;;5119872;28;20006;-61
2023/10/12 14:32:16;;;;;;;;;;;30.80;25.80;;;;;;5120104;28;20272;-60
2023/10/12 14:34:42;;;;;;;;;;;30.60;26.20;;;;;;5120007;28;19911;-60
2023/10/12 14:37:13;;;;;;;;;;;30.40;27.10;;;;;;5119814;28;19918;-60
2023/10/12 14:39:39;;;;;;;;;;;30.30;27.70;;;;;;5119856;28;20428;-60
2023/10/12 14:42:06;;;;;;;;;;;30.20;28.60;;;;;;5120058;28;20401;-61
2023/10/12 14:44:33;;;;;;;;;;;30.20;28.10;;;;;;5119537;28;19918;-61
2023/10/12 14:47:06;;;;;;;;;;;29.90;27.90;;;;;;5119923;28;19918;-60
2023/10/12 14:49:33;;;;;;;;;;;29.60;29.10;;;;;;5119765;28;19916;-60
2023/10/12 14:52:00;;;;;;;;;;;29.40;30.00;;;;;;5119367;28;19912;-60
2023/10/12 14:54:27;;;;;;;;;;;29.30;28.30;;;;;;5119649;28;19919;-60
2023/10/12 14:56:53;;;;;;;;;;;29.10;32.20;;;;;;5119677;28;19911;-60
2023/10/12 14:59:19;;;;;;;;;;;28.80;29.60;;;;;;5119540;28;20015;-60
2023/10/12 15:01:45;;;;;;;;;;;28.60;33.20;;;;;;5119249;28;19965;-60
2023/10/12 15:04:11;;;;;;;;;;;28.30;35.80;;;;;;5101097;28;19915;-60
2023/10/12 15:06:37;;;;;;;;;;;27.70;36.90;;;;;;5119246;28;19942;-60
2023/10/12 15:09:11;;;;;;;;;;;27.40;37.40;;;;;;5119302;28;20376;-60
2023/10/12 15:11:37;;;;;;;;;;;26.90;38.80;;;;;;5119458;28;20345;-60
2023/10/12 15:14:06;;;;;;;;;;;26.70;39.70;;;;;;5118737;28;19912;-60
2023/10/12 15:16:31;;;;;;;;;;;26.50;40.60;;;;;;5114069;28;19912;-60
2023/10/12 15:18:57;;;;;;;;;;;26.20;41.10;;;;;;5098655;28;19962;-60
2023/10/12 15:21:23;;;;;;;;;;;25.80;43.90;;;;;;5097120;28;19916;-60
2023/10/12 15:23:49;;;;;;;;;;;25.50;45.00;;;;;;5098743;28;20376;-60
2023/10/12 15:26:16;;;;;;;;;;;25.50;46.60;;;;;;5098617;28;19912;-60
2023/10/12 15:28:47;;;;;;;;;;;25.20;47.30;;;;;;5098298;28;19919;-60
2023/10/12 15:31:13;;;;;;;;;;;25.10;47.30;;;;;;5097309;28;19912;-60
2023/10/12 15:33:39;;;;;;;;;;;24.90;47.80;;;;;;5097949;28;19912;-60
2023/10/12 15:36:07;;;;;;;;;;;24.70;48.90;;;;;;5096988;28;20013;-60
2023/10/12 15:38:32;;;;;;;;;;;24.60;49.30;;;;;;5098327;28;19923;-60
2023/10/12 15:40:59;;;;;;;;;;;24.30;50.40;;;;;;5098371;28;20315;-59
2023/10/12 15:43:26;;;;;;;;;;;24.00;51.60;;;;;;5098008;28;19962;-60
2023/10/12 15:45:52;;;;;;;;;;;23.80;52.90;;;;;;5098211;28;19912;-60
2023/10/12 15:48:18;;;;;;;;;;;23.40;54.00;;;;;;5098096;28;19916;-59
2023/10/12 15:50:44;;;;;;;;;;;23.20;55.00;;;;;;5096473;28;19912;-60
2023/10/12 15:53:09;;;;;;;;;;;23.10;55.90;;;;;;5098099;28;20276;-59
2023/10/12 15:55:35;;;;;;;;;;;22.90;57.10;;;;;;5098222;28;20417;-59
2023/10/12 15:58:02;;;;;;;;;;;22.60;57.80;;;;;;5096433;28;19955;-59
2023/10/12 16:00:29;;;;;;;;;;;22.50;59.00;;;;;;5097685;28;19916;-59
2023/10/12 16:02:56;;;;;;;;;;;22.40;59.70;;;;;;5096168;28;19969;-59
2023/10/12 16:05:23;;;;;;;;;;;22.20;60.70;;;;;;5097768;28;20376;-59
2023/10/12 16:07:50;;;;;;;;;;;21.90;62.40;;;;;;5096532;28;19912;-59
2023/10/12 16:10:16;;;;;;;;;;;21.70;64.80;;;;;;5096591;28;20357;-59
2023/10/12 16:12:43;;;;;;;;;;;21.50;66.90;;;;;;5097305;28;19912;-59
2023/10/12 16:15:09;;;;;;;;;;;21.20;68.90;;;;;;5097350;28;19934;-59
2023/10/12 16:17:36;;;;;;;;;;;21.00;70.10;;;;;;5111643;28;19912;-59
2023/10/12 16:20:09;;;;;;;;;;;20.90;71.00;;;;;;5116517;28;19912;-59
2023/10/12 16:22:41;;;;;;;;;;;20.80;72.20;;;;;;5116559;28;19922;-59
2023/10/12 16:25:11;;;;;;;;;;;20.80;74.20;;;;;;5117992;28;19997;-59
2023/10/12 16:27:41;;;;;;;;;;;20.60;78.70;;;;;;5116291;28;19912;-59
2023/10/12 16:30:16;;;;;;;;;;;20.50;80.90;;;;;;5117712;28;19919;-59
2023/10/12 16:32:48;;;;;;;;;;;20.40;83.20;;;;;;5116506;28;19911;-59